»·PEaware :: N6182G MMES-KSAN

N6182G :: MMES-KSAN

FLIGHT INFORMATION

Flight Status: Arrived
Operator: Privately registered:
United States
More flights under this callsign
Pilot: Matthew M. (8235)
Aircraft: CESSNA 182 SKYLANE
(C182)
More flights by this aircraft type
Origin: MMES Ensenada Intl
Mexico
Destination: KSAN San Diego Intl-Lindbergh
United States
More flights between these airports :: More routes between these airports
Route:
File this flight plan on PilotEdge
Remarks:
Altitude:
(Current/Filed)
4,500ft
Speed:
(Current/Filed)
120kts
Departed: 31-Jul-20 12:08 PM
Arrived: 31-Jul-20 12:41 PM
Distance/Time
Traveled:
63nm/0:33
Distance/Time
To Go:
Arrived

Flight Plot

Page will automatically refresh every two minutes.


Map Options




Map Legend


Flown Route
Filed Route
Departure Airport
Arrival Airport
Navaid (VOR, NDB)
Fix

Horizontal Profiles

Position Reports

Time Latitude Longitude Heading Altitude Ground
Speed
31-Jul-20 12:04 31.798649 -116.596567 107 69ft 15kts
31-Jul-20 12:05 31.796269 -116.595747 179 69ft 22kts
31-Jul-20 12:06 31.791916 -116.596828 301 69ft 31kts
31-Jul-20 12:07 31.808117 -116.610622 0 521ft 97kts
31-Jul-20 12:08 31.835009 -116.619855 309 1220ft 107kts
31-Jul-20 12:09 31.851844 -116.648342 304 2005ft 104kts
31-Jul-20 12:10 31.868131 -116.676318 310 2712ft 106kts
31-Jul-20 12:11 31.887698 -116.704121 320 3249ft 112kts
31-Jul-20 12:12 31.916449 -116.725027 329 3752ft 130kts
31-Jul-20 12:13 31.948496 -116.747739 329 4242ft 138kts
31-Jul-20 12:14 31.982103 -116.771596 329 4544ft 146kts
31-Jul-20 12:15 32.016303 -116.795634 329 4541ft 139kts
31-Jul-20 12:16 32.050291 -116.819350 329 4561ft 147kts
31-Jul-20 12:17 32.085242 -116.843718 329 4546ft 144kts
31-Jul-20 12:18 32.119168 -116.867372 329 4542ft 139kts
31-Jul-20 12:19 32.153131 -116.891057 329 4558ft 147kts
31-Jul-20 12:20 32.187905 -116.915323 329 4541ft 143kts
31-Jul-20 12:21 32.221343 -116.938662 329 4537ft 135kts
31-Jul-20 12:22 32.253473 -116.961083 329 4542ft 133kts
31-Jul-20 12:23 32.285760 -116.983627 329 4530ft 137kts
31-Jul-20 12:24 32.318282 -117.006337 329 4523ft 133kts
31-Jul-20 12:25 32.354257 -117.016807 349 4536ft 135kts
31-Jul-20 12:26 32.391583 -117.020976 7 4526ft 134kts
31-Jul-20 12:27 32.428418 -117.012627 9 4529ft 134kts
31-Jul-20 12:28 32.464543 -117.001378 19 4530ft 134kts
31-Jul-20 12:29 32.501582 -116.986796 14 4516ft 148kts
31-Jul-20 12:30 32.540049 -116.983369 0 4505ft 138kts
31-Jul-20 12:31 32.579334 -116.981889 0 4512ft 147kts
31-Jul-20 12:32 32.619195 -116.980661 0 4487ft 139kts
31-Jul-20 12:33 32.654947 -116.989412 318 4514ft 135kts
31-Jul-20 12:34 32.682991 -117.022541 311 4159ft 148kts
31-Jul-20 12:35 32.700798 -117.060840 291 3495ft 115kts
31-Jul-20 12:36 32.709620 -117.094518 290 2627ft 103kts
31-Jul-20 12:37 32.716864 -117.125540 290 1498ft 90kts
31-Jul-20 12:38 32.724083 -117.150989 287 759ft 71kts
31-Jul-20 12:39 32.729489 -117.172993 287 159ft 68kts
31-Jul-20 12:40 32.732857 -117.184334 8 18ft 5kts
31-Jul-20 12:41 32.732440 -117.179836 52 18ft 7kts
31-Jul-20 12:42 32.733606 -117.179173 6 18ft 0kts
31-Jul-20 12:43 32.733606 -117.179173 6 18ft 0kts
31-Jul-20 12:44 32.733606 -117.179173 6 18ft 0kts
31-Jul-20 12:45 32.733606 -117.179173 6 18ft 0kts
31-Jul-20 12:46 32.733606 -117.179173 6 18ft 0kts
31-Jul-20 12:47 32.733606 -117.179173 6 18ft 0kts
31-Jul-20 12:48 32.733606 -117.179173 6 18ft 0kts
31-Jul-20 12:49 32.733606 -117.179173 6 18ft 0kts
31-Jul-20 12:50 32.733606 -117.179173 6 18ft 0kts
31-Jul-20 12:51 32.733606 -117.179173 6 18ft 0kts
31-Jul-20 12:52 32.733606 -117.179173 6 18ft 0kts
31-Jul-20 12:53 32.733606 -117.179173 6 18ft 0kts

Navigation Log

Ident Type
Flight plan parsing failed, navigation log unavailable